sensor_id;sensor_type;location;lat;lon;timestamp;P1;durP1;ratioP1;P2;durP2;ratioP2
59938;SDS011;45801;51.810;19.444;2022-09-03T00:05:07;6.30;;;2.20;;
59938;SDS011;45801;51.810;19.444;2022-09-03T00:07:41;5.20;;;1.80;;
59938;SDS011;45801;51.810;19.444;2022-09-03T00:10:15;6.00;;;1.90;;
59938;SDS011;45801;51.810;19.444;2022-09-03T00:12:57;5.90;;;2.10;;
59938;SDS011;45801;51.810;19.444;2022-09-03T00:15:27;5.00;;;2.40;;
59938;SDS011;45801;51.810;19.444;2022-09-03T00:18:17;5.70;;;1.80;;
59938;SDS011;45801;51.810;19.444;2022-09-03T00:20:49;5.30;;;1.70;;
59938;SDS011;45801;51.810;19.444;2022-09-03T00:23:19;6.10;;;2.00;;
59938;SDS011;45801;51.810;19.444;2022-09-03T00:25:50;7.00;;;2.10;;
59938;SDS011;45801;51.810;19.444;2022-09-03T00:31:29;6.00;;;1.80;;
59938;SDS011;45801;51.810;19.444;2022-09-03T00:34:06;5.50;;;2.40;;
59938;SDS011;45801;51.810;19.444;2022-09-03T00:36:41;6.40;;;2.10;;
59938;SDS011;45801;51.810;19.444;2022-09-03T00:39:09;6.70;;;2.10;;
59938;SDS011;45801;51.810;19.444;2022-09-03T00:44:45;7.70;;;2.40;;
59938;SDS011;45801;51.810;19.444;2022-09-03T00:47:19;7.20;;;2.20;;
59938;SDS011;45801;51.810;19.444;2022-09-03T00:50:05;6.40;;;2.00;;
59938;SDS011;45801;51.810;19.444;2022-09-03T00:55:41;5.90;;;2.00;;
59938;SDS011;45801;51.810;19.444;2022-09-03T00:58:17;5.40;;;2.00;;
59938;SDS011;45801;51.810;19.444;2022-09-03T01:00:45;6.00;;;2.20;;
59938;SDS011;45801;51.810;19.444;2022-09-03T01:11:31;5.60;;;2.10;;
59938;SDS011;45801;51.810;19.444;2022-09-03T01:16:55;7.30;;;2.10;;
59938;SDS011;45801;51.810;19.444;2022-09-03T01:22:24;5.40;;;2.10;;
59938;SDS011;45801;51.810;19.444;2022-09-03T01:25:16;6.10;;;1.70;;
59938;SDS011;45801;51.810;19.444;2022-09-03T01:39:05;5.10;;;1.80;;
59938;SDS011;45801;51.810;19.444;2022-09-03T01:45:14;6.40;;;1.90;;
59938;SDS011;45801;51.810;19.444;2022-09-03T01:50:23;4.40;;;1.90;;
59938;SDS011;45801;51.810;19.444;2022-09-03T01:53:04;5.20;;;1.90;;
59938;SDS011;45801;51.810;19.444;2022-09-03T02:00:42;4.00;;;1.60;;
59938;SDS011;45801;51.810;19.444;2022-09-03T02:03:12;5.90;;;2.00;;
59938;SDS011;45801;51.810;19.444;2022-09-03T02:05:41;5.40;;;2.20;;
59938;SDS011;45801;51.810;19.444;2022-09-03T02:08:09;6.50;;;1.90;;
59938;SDS011;45801;51.810;19.444;2022-09-03T02:10:40;7.10;;;2.10;;
59938;SDS011;45801;51.810;19.444;2022-09-03T02:15:39;5.60;;;1.90;;
59938;SDS011;45801;51.810;19.444;2022-09-03T02:18:19;6.60;;;2.30;;
59938;SDS011;45801;51.810;19.444;2022-09-03T02:20:49;6.10;;;1.80;;
59938;SDS011;45801;51.810;19.444;2022-09-03T02:23:19;6.20;;;2.10;;
59938;SDS011;45801;51.810;19.444;2022-09-03T02:25:50;6.40;;;2.00;;
59938;SDS011;45801;51.810;19.444;2022-09-03T02:28:21;8.80;;;2.80;;
59938;SDS011;45801;51.810;19.444;2022-09-03T02:30:48;6.30;;;2.00;;
59938;SDS011;45801;51.810;19.444;2022-09-03T02:33:15;7.70;;;2.40;;
59938;SDS011;45801;51.810;19.444;2022-09-03T02:35:41;5.00;;;2.10;;
59938;SDS011;45801;51.810;19.444;2022-09-03T02:38:18;7.40;;;2.00;;
59938;SDS011;45801;51.810;19.444;2022-09-03T02:40:48;5.00;;;1.90;;
59938;SDS011;45801;51.810;19.444;2022-09-03T02:43:16;7.30;;;2.50;;
59938;SDS011;45801;51.810;19.444;2022-09-03T02:45:47;5.90;;;2.30;;
59938;SDS011;45801;51.810;19.444;2022-09-03T02:48:19;6.90;;;2.40;;
59938;SDS011;45801;51.810;19.444;2022-09-03T02:50:49;6.90;;;2.30;;
59938;SDS011;45801;51.810;19.444;2022-09-03T02:53:15;5.40;;;2.00;;
59938;SDS011;45801;51.810;19.444;2022-09-03T02:55:42;9.00;;;2.50;;
59938;SDS011;45801;51.810;19.444;2022-09-03T02:58:08;6.70;;;2.20;;
59938;SDS011;45801;51.810;19.444;2022-09-03T03:00:35;8.20;;;2.50;;
59938;SDS011;45801;51.810;19.444;2022-09-03T03:03:19;7.30;;;2.40;;
59938;SDS011;45801;51.810;19.444;2022-09-03T03:08:16;4.80;;;2.00;;
59938;SDS011;45801;51.810;19.444;2022-09-03T03:10:46;6.10;;;1.90;;
59938;SDS011;45801;51.810;19.444;2022-09-03T03:13:14;6.70;;;2.30;;
59938;SDS011;45801;51.810;19.444;2022-09-03T03:15:41;6.60;;;2.00;;
59938;SDS011;45801;51.810;19.444;2022-09-03T03:18:08;6.60;;;2.20;;
59938;SDS011;45801;51.810;19.444;2022-09-03T03:20:37;6.60;;;2.30;;
59938;SDS011;45801;51.810;19.444;2022-09-03T03:23:04;6.00;;;2.10;;
59938;SDS011;45801;51.810;19.444;2022-09-03T03:25:31;7.40;;;2.30;;
59938;SDS011;45801;51.810;19.444;2022-09-03T03:27:59;6.50;;;2.00;;
59938;SDS011;45801;51.810;19.444;2022-09-03T03:30:26;8.60;;;2.60;;
59938;SDS011;45801;51.810;19.444;2022-09-03T03:32:53;6.50;;;2.20;;
59938;SDS011;45801;51.810;19.444;2022-09-03T03:35:20;5.70;;;2.10;;
59938;SDS011;45801;51.810;19.444;2022-09-03T03:37:46;6.40;;;2.20;;
59938;SDS011;45801;51.810;19.444;2022-09-03T03:40:13;6.10;;;1.90;;
59938;SDS011;45801;51.810;19.444;2022-09-03T03:42:40;6.40;;;2.40;;
59938;SDS011;45801;51.810;19.444;2022-09-03T03:45:08;5.00;;;1.90;;
59938;SDS011;45801;51.810;19.444;2022-09-03T03:47:35;6.30;;;1.90;;
59938;SDS011;45801;51.810;19.444;2022-09-03T03:50:02;6.70;;;2.40;;
59938;SDS011;45801;51.810;19.444;2022-09-03T03:52:29;6.20;;;2.10;;
59938;SDS011;45801;51.810;19.444;2022-09-03T03:54:56;6.20;;;2.20;;
59938;SDS011;45801;51.810;19.444;2022-09-03T03:57:22;6.00;;;2.00;;
59938;SDS011;45801;51.810;19.444;2022-09-03T03:59:49;6.20;;;2.00;;
59938;SDS011;45801;51.810;19.444;2022-09-03T04:02:16;7.10;;;2.20;;
59938;SDS011;45801;51.810;19.444;2022-09-03T04:04:42;7.00;;;2.60;;
59938;SDS011;45801;51.810;19.444;2022-09-03T04:07:09;6.10;;;2.60;;
59938;SDS011;45801;51.810;19.444;2022-09-03T04:09:35;5.40;;;2.10;;
59938;SDS011;45801;51.810;19.444;2022-09-03T04:12:02;6.00;;;2.10;;
59938;SDS011;45801;51.810;19.444;2022-09-03T04:14:33;6.60;;;2.10;;
59938;SDS011;45801;51.810;19.444;2022-09-03T04:17:00;5.10;;;2.10;;
59938;SDS011;45801;51.810;19.444;2022-09-03T04:19:28;6.10;;;2.40;;
59938;SDS011;45801;51.810;19.444;2022-09-03T04:21:57;7.50;;;2.40;;
59938;SDS011;45801;51.810;19.444;2022-09-03T04:24:23;7.50;;;2.20;;
59938;SDS011;45801;51.810;19.444;2022-09-03T04:26:50;7.20;;;2.20;;
59938;SDS011;45801;51.810;19.444;2022-09-03T04:29:16;7.60;;;2.60;;
59938;SDS011;45801;51.810;19.444;2022-09-03T04:31:43;7.10;;;2.50;;
59938;SDS011;45801;51.810;19.444;2022-09-03T04:34:29;6.60;;;2.60;;
59938;SDS011;45801;51.810;19.444;2022-09-03T04:36:56;6.90;;;2.30;;
59938;SDS011;45801;51.810;19.444;2022-09-03T04:39:24;7.20;;;2.30;;
59938;SDS011;45801;51.810;19.444;2022-09-03T04:41:51;5.80;;;2.30;;
59938;SDS011;45801;51.810;19.444;2022-09-03T04:44:17;6.90;;;2.60;;
59938;SDS011;45801;51.810;19.444;2022-09-03T04:46:43;8.60;;;3.10;;
59938;SDS011;45801;51.810;19.444;2022-09-03T04:49:12;6.10;;;2.30;;
59938;SDS011;45801;51.810;19.444;2022-09-03T04:51:39;8.00;;;2.70;;
59938;SDS011;45801;51.810;19.444;2022-09-03T04:54:06;7.00;;;2.10;;
59938;SDS011;45801;51.810;19.444;2022-09-03T04:56:33;7.50;;;2.20;;
59938;SDS011;45801;51.810;19.444;2022-09-03T04:59:01;8.20;;;2.20;;
59938;SDS011;45801;51.810;19.444;2022-09-03T05:01:33;7.80;;;2.60;;
59938;SDS011;45801;51.810;19.444;2022-09-03T05:04:02;7.60;;;2.60;;
59938;SDS011;45801;51.810;19.444;2022-09-03T05:06:29;7.60;;;2.40;;
59938;SDS011;45801;51.810;19.444;2022-09-03T05:08:56;8.20;;;2.30;;
59938;SDS011;45801;51.810;19.444;2022-09-03T05:11:24;5.40;;;2.10;;
59938;SDS011;45801;51.810;19.444;2022-09-03T05:13:52;6.30;;;2.20;;
59938;SDS011;45801;51.810;19.444;2022-09-03T05:16:21;5.00;;;2.00;;
59938;SDS011;45801;51.810;19.444;2022-09-03T05:18:50;6.60;;;2.20;;
59938;SDS011;45801;51.810;19.444;2022-09-03T05:21:19;6.30;;;2.20;;
59938;SDS011;45801;51.810;19.444;2022-09-03T05:23:46;5.50;;;2.00;;
59938;SDS011;45801;51.810;19.444;2022-09-03T05:26:19;6.80;;;2.30;;
59938;SDS011;45801;51.810;19.444;2022-09-03T05:28:51;6.50;;;2.10;;
59938;SDS011;45801;51.810;19.444;2022-09-03T05:31:21;5.10;;;2.10;;
59938;SDS011;45801;51.810;19.444;2022-09-03T05:33:49;6.00;;;2.20;;
59938;SDS011;45801;51.810;19.444;2022-09-03T05:36:21;7.40;;;2.10;;
59938;SDS011;45801;51.810;19.444;2022-09-03T05:38:49;6.30;;;2.00;;
59938;SDS011;45801;51.810;19.444;2022-09-03T05:41:17;6.70;;;2.50;;
59938;SDS011;45801;51.810;19.444;2022-09-03T05:43:43;7.00;;;2.00;;
59938;SDS011;45801;51.810;19.444;2022-09-03T05:46:11;7.10;;;2.20;;
59938;SDS011;45801;51.810;19.444;2022-09-03T05:48:41;6.10;;;1.90;;
59938;SDS011;45801;51.810;19.444;2022-09-03T05:51:09;6.70;;;2.40;;
59938;SDS011;45801;51.810;19.444;2022-09-03T05:53:41;7.70;;;2.30;;
59938;SDS011;45801;51.810;19.444;2022-09-03T05:56:10;5.20;;;2.20;;
59938;SDS011;45801;51.810;19.444;2022-09-03T05:58:39;6.40;;;2.10;;
59938;SDS011;45801;51.810;19.444;2022-09-03T06:01:10;7.60;;;2.20;;
59938;SDS011;45801;51.810;19.444;2022-09-03T06:03:58;7.50;;;2.00;;
59938;SDS011;45801;51.810;19.444;2022-09-03T06:06:25;6.40;;;2.10;;
59938;SDS011;45801;51.810;19.444;2022-09-03T06:08:53;5.90;;;1.90;;
59938;SDS011;45801;51.810;19.444;2022-09-03T06:11:21;6.20;;;2.30;;
59938;SDS011;45801;51.810;19.444;2022-09-03T06:13:53;6.70;;;2.30;;
59938;SDS011;45801;51.810;19.444;2022-09-03T06:16:22;6.60;;;2.30;;
59938;SDS011;45801;51.810;19.444;2022-09-03T06:18:49;6.30;;;2.10;;
59938;SDS011;45801;51.810;19.444;2022-09-03T06:21:16;6.90;;;2.10;;
59938;SDS011;45801;51.810;19.444;2022-09-03T06:23:42;8.60;;;2.20;;
59938;SDS011;45801;51.810;19.444;2022-09-03T06:26:14;6.70;;;2.20;;
59938;SDS011;45801;51.810;19.444;2022-09-03T06:28:40;5.60;;;2.00;;
59938;SDS011;45801;51.810;19.444;2022-09-03T06:31:10;8.80;;;2.40;;
59938;SDS011;45801;51.810;19.444;2022-09-03T06:33:38;6.00;;;1.80;;
59938;SDS011;45801;51.810;19.444;2022-09-03T06:36:08;7.50;;;2.00;;
59938;SDS011;45801;51.810;19.444;2022-09-03T06:38:36;6.30;;;2.00;;
59938;SDS011;45801;51.810;19.444;2022-09-03T06:41:07;6.10;;;1.90;;
59938;SDS011;45801;51.810;19.444;2022-09-03T06:43:36;6.60;;;2.20;;
59938;SDS011;45801;51.810;19.444;2022-09-03T06:46:08;6.30;;;2.30;;
59938;SDS011;45801;51.810;19.444;2022-09-03T06:48:37;5.00;;;1.70;;
59938;SDS011;45801;51.810;19.444;2022-09-03T06:51:10;8.40;;;2.30;;
59938;SDS011;45801;51.810;19.444;2022-09-03T06:56:10;6.60;;;2.00;;
59938;SDS011;45801;51.810;19.444;2022-09-03T06:58:42;5.80;;;1.70;;
59938;SDS011;45801;51.810;19.444;2022-09-03T07:03:42;4.90;;;1.50;;
59938;SDS011;45801;51.810;19.444;2022-09-03T07:06:10;6.50;;;2.10;;
59938;SDS011;45801;51.810;19.444;2022-09-03T07:11:10;6.60;;;1.70;;
59938;SDS011;45801;51.810;19.444;2022-09-03T07:13:39;5.90;;;1.70;;
59938;SDS011;45801;51.810;19.444;2022-09-03T07:16:12;6.00;;;1.80;;
59938;SDS011;45801;51.810;19.444;2022-09-03T07:18:41;6.90;;;1.80;;
59938;SDS011;45801;51.810;19.444;2022-09-03T07:21:10;5.80;;;1.80;;
59938;SDS011;45801;51.810;19.444;2022-09-03T07:23:38;5.40;;;1.60;;
59938;SDS011;45801;51.810;19.444;2022-09-03T07:26:05;3.50;;;1.50;;
59938;SDS011;45801;51.810;19.444;2022-09-03T07:28:35;6.20;;;1.90;;
59938;SDS011;45801;51.810;19.444;2022-09-03T07:31:04;4.80;;;1.70;;
59938;SDS011;45801;51.810;19.444;2022-09-03T07:33:34;6.20;;;1.50;;
59938;SDS011;45801;51.810;19.444;2022-09-03T07:36:05;4.50;;;1.40;;
59938;SDS011;45801;51.810;19.444;2022-09-03T07:38:34;4.70;;;1.30;;
59938;SDS011;45801;51.810;19.444;2022-09-03T07:41:05;5.20;;;1.50;;
59938;SDS011;45801;51.810;19.444;2022-09-03T07:43:37;5.50;;;1.50;;
59938;SDS011;45801;51.810;19.444;2022-09-03T07:46:08;4.90;;;1.80;;
59938;SDS011;45801;51.810;19.444;2022-09-03T07:48:39;4.40;;;1.40;;
59938;SDS011;45801;51.810;19.444;2022-09-03T07:51:07;4.70;;;1.70;;
59938;SDS011;45801;51.810;19.444;2022-09-03T07:53:34;4.60;;;1.50;;
59938;SDS011;45801;51.810;19.444;2022-09-03T07:56:02;3.80;;;1.30;;
59938;SDS011;45801;51.810;19.444;2022-09-03T07:58:31;4.50;;;1.50;;
59938;SDS011;45801;51.810;19.444;2022-09-03T08:01:03;5.40;;;1.30;;
59938;SDS011;45801;51.810;19.444;2022-09-03T08:03:48;5.50;;;1.50;;
59938;SDS011;45801;51.810;19.444;2022-09-03T08:06:17;4.30;;;1.30;;
59938;SDS011;45801;51.810;19.444;2022-09-03T08:08:45;5.00;;;1.70;;
59938;SDS011;45801;51.810;19.444;2022-09-03T08:11:13;5.00;;;1.50;;
59938;SDS011;45801;51.810;19.444;2022-09-03T08:13:45;5.40;;;1.40;;
59938;SDS011;45801;51.810;19.444;2022-09-03T08:16:14;5.30;;;1.50;;
59938;SDS011;45801;51.810;19.444;2022-09-03T08:18:46;4.20;;;1.50;;
59938;SDS011;45801;51.810;19.444;2022-09-03T08:21:13;5.70;;;1.40;;
59938;SDS011;45801;51.810;19.444;2022-09-03T08:23:44;5.40;;;1.50;;
59938;SDS011;45801;51.810;19.444;2022-09-03T08:26:12;5.20;;;1.40;;
59938;SDS011;45801;51.810;19.444;2022-09-03T08:28:40;5.00;;;1.50;;
59938;SDS011;45801;51.810;19.444;2022-09-03T08:33:44;4.30;;;1.50;;
59938;SDS011;45801;51.810;19.444;2022-09-03T08:38:42;3.80;;;1.40;;
59938;SDS011;45801;51.810;19.444;2022-09-03T08:41:12;4.70;;;1.40;;
59938;SDS011;45801;51.810;19.444;2022-09-03T08:43:50;6.20;;;1.50;;
59938;SDS011;45801;51.810;19.444;2022-09-03T08:46:31;5.10;;;1.50;;
59938;SDS011;45801;51.810;19.444;2022-09-03T08:49:06;5.50;;;1.50;;
59938;SDS011;45801;51.810;19.444;2022-09-03T08:51:36;5.40;;;1.50;;
59938;SDS011;45801;51.810;19.444;2022-09-03T08:54:06;4.50;;;1.50;;
59938;SDS011;45801;51.810;19.444;2022-09-03T08:56:36;5.50;;;1.60;;
59938;SDS011;45801;51.810;19.444;2022-09-03T08:59:06;6.70;;;1.90;;
59938;SDS011;45801;51.810;19.444;2022-09-03T09:01:51;7.30;;;1.90;;
59938;SDS011;45801;51.810;19.444;2022-09-03T09:06:55;7.70;;;2.00;;
59938;SDS011;45801;51.810;19.444;2022-09-03T09:09:32;8.70;;;1.90;;
59938;SDS011;45801;51.810;19.444;2022-09-03T09:15:27;5.70;;;1.60;;
59938;SDS011;45801;51.810;19.444;2022-09-03T09:18:04;4.80;;;1.80;;
59938;SDS011;45801;51.810;19.444;2022-09-03T09:23:14;5.20;;;1.60;;
59938;SDS011;45801;51.810;19.444;2022-09-03T09:25:49;5.10;;;1.50;;
59938;SDS011;45801;51.810;19.444;2022-09-03T09:30:46;5.20;;;1.60;;
59938;SDS011;45801;51.810;19.444;2022-09-03T09:33:14;4.90;;;1.50;;
59938;SDS011;45801;51.810;19.444;2022-09-03T09:35:42;6.60;;;2.00;;
59938;SDS011;45801;51.810;19.444;2022-09-03T09:38:09;5.00;;;1.70;;
59938;SDS011;45801;51.810;19.444;2022-09-03T09:40:38;5.00;;;1.80;;
59938;SDS011;45801;51.810;19.444;2022-09-03T09:43:18;5.20;;;2.10;;
59938;SDS011;45801;51.810;19.444;2022-09-03T09:45:49;6.20;;;2.40;;
59938;SDS011;45801;51.810;19.444;2022-09-03T09:48:27;6.10;;;1.90;;
59938;SDS011;45801;51.810;19.444;2022-09-03T09:51:03;6.90;;;2.00;;
59938;SDS011;45801;51.810;19.444;2022-09-03T09:53:38;5.40;;;1.90;;
59938;SDS011;45801;51.810;19.444;2022-09-03T09:56:06;6.20;;;2.10;;
59938;SDS011;45801;51.810;19.444;2022-09-03T09:58:33;5.10;;;1.50;;
59938;SDS011;45801;51.810;19.444;2022-09-03T10:01:03;6.10;;;1.80;;
59938;SDS011;45801;51.810;19.444;2022-09-03T10:03:46;6.20;;;1.80;;
59938;SDS011;45801;51.810;19.444;2022-09-03T10:06:15;6.80;;;1.90;;
59938;SDS011;45801;51.810;19.444;2022-09-03T10:09:08;5.80;;;1.60;;
59938;SDS011;45801;51.810;19.444;2022-09-03T10:11:37;6.00;;;1.80;;
59938;SDS011;45801;51.810;19.444;2022-09-03T10:14:10;6.70;;;1.80;;
59938;SDS011;45801;51.810;19.444;2022-09-03T10:16:44;7.90;;;1.70;;
59938;SDS011;45801;51.810;19.444;2022-09-03T10:19:16;5.40;;;1.80;;
59938;SDS011;45801;51.810;19.444;2022-09-03T10:22:01;4.00;;;1.30;;
59938;SDS011;45801;51.810;19.444;2022-09-03T10:27:08;5.50;;;1.80;;
59938;SDS011;45801;51.810;19.444;2022-09-03T10:29:37;4.70;;;1.70;;
59938;SDS011;45801;51.810;19.444;2022-09-03T10:35:02;7.30;;;1.70;;
59938;SDS011;45801;51.810;19.444;2022-09-03T10:37:39;4.40;;;1.50;;
59938;SDS011;45801;51.810;19.444;2022-09-03T10:43:09;5.30;;;1.60;;
59938;SDS011;45801;51.810;19.444;2022-09-03T10:45:58;5.20;;;1.40;;
59938;SDS011;45801;51.810;19.444;2022-09-03T10:51:32;5.80;;;1.70;;
59938;SDS011;45801;51.810;19.444;2022-09-03T10:57:02;5.70;;;1.70;;
59938;SDS011;45801;51.810;19.444;2022-09-03T11:05:53;5.10;;;1.40;;
59938;SDS011;45801;51.810;19.444;2022-09-03T11:08:24;4.90;;;1.50;;
59938;SDS011;45801;51.810;19.444;2022-09-03T11:11:12;4.90;;;1.40;;
59938;SDS011;45801;51.810;19.444;2022-09-03T11:16:30;4.10;;;1.40;;
59938;SDS011;45801;51.810;19.444;2022-09-03T11:19:04;5.20;;;1.70;;
59938;SDS011;45801;51.810;19.444;2022-09-03T11:21:34;5.00;;;1.60;;
59938;SDS011;45801;51.810;19.444;2022-09-03T11:32:23;5.50;;;1.70;;
59938;SDS011;45801;51.810;19.444;2022-09-03T11:35:12;6.90;;;1.90;;
59938;SDS011;45801;51.810;19.444;2022-09-03T11:38:01;6.80;;;1.80;;
59938;SDS011;45801;51.810;19.444;2022-09-03T11:45:48;6.20;;;2.00;;
59938;SDS011;45801;51.810;19.444;2022-09-03T11:48:43;4.60;;;1.50;;
59938;SDS011;45801;51.810;19.444;2022-09-03T11:53:52;7.00;;;1.70;;
59938;SDS011;45801;51.810;19.444;2022-09-03T11:56:20;4.80;;;1.90;;
59938;SDS011;45801;51.810;19.444;2022-09-03T11:58:58;5.50;;;1.70;;
59938;SDS011;45801;51.810;19.444;2022-09-03T12:01:27;5.90;;;1.60;;
59938;SDS011;45801;51.810;19.444;2022-09-03T12:04:01;5.40;;;1.60;;
59938;SDS011;45801;51.810;19.444;2022-09-03T12:07:05;7.40;;;2.10;;
59938;SDS011;45801;51.810;19.444;2022-09-03T12:10:01;6.00;;;2.10;;
59938;SDS011;45801;51.810;19.444;2022-09-03T12:18:59;6.30;;;2.00;;
59938;SDS011;45801;51.810;19.444;2022-09-03T12:21:36;6.70;;;2.00;;
59938;SDS011;45801;51.810;19.444;2022-09-03T12:24:05;7.30;;;2.30;;
59938;SDS011;45801;51.810;19.444;2022-09-03T12:26:40;7.30;;;2.50;;
59938;SDS011;45801;51.810;19.444;2022-09-03T12:29:24;5.70;;;2.00;;
59938;SDS011;45801;51.810;19.444;2022-09-03T12:31:53;6.60;;;2.00;;
59938;SDS011;45801;51.810;19.444;2022-09-03T12:34:21;5.50;;;2.00;;
59938;SDS011;45801;51.810;19.444;2022-09-03T12:36:50;5.70;;;2.00;;
59938;SDS011;45801;51.810;19.444;2022-09-03T12:39:19;6.30;;;2.10;;
59938;SDS011;45801;51.810;19.444;2022-09-03T12:47:02;5.40;;;2.20;;
59938;SDS011;45801;51.810;19.444;2022-09-03T12:49:45;6.30;;;2.40;;
59938;SDS011;45801;51.810;19.444;2022-09-03T12:52:20;6.80;;;2.40;;
59938;SDS011;45801;51.810;19.444;2022-09-03T12:57:24;7.30;;;2.30;;
59938;SDS011;45801;51.810;19.444;2022-09-03T12:59:57;6.10;;;2.10;;
59938;SDS011;45801;51.810;19.444;2022-09-03T13:02:37;6.50;;;2.20;;
59938;SDS011;45801;51.810;19.444;2022-09-03T13:05:16;7.30;;;2.00;;
59938;SDS011;45801;51.810;19.444;2022-09-03T13:07:50;6.80;;;1.90;;
59938;SDS011;45801;51.810;19.444;2022-09-03T13:10:27;6.60;;;2.20;;
59938;SDS011;45801;51.810;19.444;2022-09-03T13:13:00;9.70;;;2.30;;
59938;SDS011;45801;51.810;19.444;2022-09-03T13:15:29;5.90;;;2.20;;
59938;SDS011;45801;51.810;19.444;2022-09-03T13:18:16;7.30;;;2.50;;
59938;SDS011;45801;51.810;19.444;2022-09-03T13:23:27;11.30;;;2.90;;
59938;SDS011;45801;51.810;19.444;2022-09-03T13:26:08;10.10;;;4.30;;
59938;SDS011;45801;51.810;19.444;2022-09-03T13:31:37;8.30;;;2.50;;
59938;SDS011;45801;51.810;19.444;2022-09-03T13:34:14;6.90;;;2.60;;
59938;SDS011;45801;51.810;19.444;2022-09-03T13:36:52;8.60;;;2.50;;
59938;SDS011;45801;51.810;19.444;2022-09-03T13:39:27;8.80;;;3.70;;
59938;SDS011;45801;51.810;19.444;2022-09-03T13:47:48;9.00;;;3.30;;
59938;SDS011;45801;51.810;19.444;2022-09-03T13:51:00;13.60;;;3.20;;
59938;SDS011;45801;51.810;19.444;2022-09-03T13:53:45;11.40;;;2.90;;
59938;SDS011;45801;51.810;19.444;2022-09-03T13:56:22;17.60;;;4.00;;
59938;SDS011;45801;51.810;19.444;2022-09-03T13:58:57;10.40;;;2.70;;
59938;SDS011;45801;51.810;19.444;2022-09-03T14:01:54;7.90;;;2.70;;
59938;SDS011;45801;51.810;19.444;2022-09-03T14:04:32;8.40;;;3.00;;
59938;SDS011;45801;51.810;19.444;2022-09-03T14:10:26;9.00;;;3.10;;
59938;SDS011;45801;51.810;19.444;2022-09-03T14:15:57;10.60;;;3.20;;
59938;SDS011;45801;51.810;19.444;2022-09-03T14:21:24;10.00;;;2.90;;
59938;SDS011;45801;51.810;19.444;2022-09-03T14:27:04;9.00;;;3.30;;
59938;SDS011;45801;51.810;19.444;2022-09-03T14:29:33;7.80;;;3.00;;
59938;SDS011;45801;51.810;19.444;2022-09-03T14:34:59;7.70;;;2.90;;
59938;SDS011;45801;51.810;19.444;2022-09-03T14:38:04;9.10;;;3.10;;
59938;SDS011;45801;51.810;19.444;2022-09-03T14:40:41;8.50;;;3.20;;
59938;SDS011;45801;51.810;19.444;2022-09-03T14:57:13;6.70;;;3.20;;
59938;SDS011;45801;51.810;19.444;2022-09-03T14:59:55;7.50;;;3.00;;
59938;SDS011;45801;51.810;19.444;2022-09-03T15:08:00;8.40;;;3.20;;
59938;SDS011;45801;51.810;19.444;2022-09-03T15:10:37;8.50;;;3.70;;
59938;SDS011;45801;51.810;19.444;2022-09-03T15:13:15;7.90;;;3.10;;
59938;SDS011;45801;51.810;19.444;2022-09-03T15:21:04;7.50;;;3.20;;
59938;SDS011;45801;51.810;19.444;2022-09-03T15:27:01;8.50;;;2.90;;
59938;SDS011;45801;51.810;19.444;2022-09-03T15:37:19;9.60;;;3.10;;
59938;SDS011;45801;51.810;19.444;2022-09-03T15:39:59;6.10;;;2.40;;
59938;SDS011;45801;51.810;19.444;2022-09-03T15:42:26;6.40;;;2.50;;
59938;SDS011;45801;51.810;19.444;2022-09-03T15:44:59;9.30;;;3.50;;
59938;SDS011;45801;51.810;19.444;2022-09-03T15:48:00;7.80;;;3.20;;
59938;SDS011;45801;51.810;19.444;2022-09-03T15:51:03;9.90;;;5.00;;
59938;SDS011;45801;51.810;19.444;2022-09-03T15:53:48;9.00;;;4.10;;
59938;SDS011;45801;51.810;19.444;2022-09-03T16:02:12;6.30;;;2.40;;
59938;SDS011;45801;51.810;19.444;2022-09-03T16:10:07;9.70;;;5.40;;
59938;SDS011;45801;51.810;19.444;2022-09-03T16:24:08;9.20;;;2.70;;
59938;SDS011;45801;51.810;19.444;2022-09-03T16:27:06;7.60;;;3.10;;
59938;SDS011;45801;51.810;19.444;2022-09-03T16:29:39;8.20;;;2.80;;
59938;SDS011;45801;51.810;19.444;2022-09-03T16:32:11;7.80;;;2.60;;
59938;SDS011;45801;51.810;19.444;2022-09-03T16:35:02;7.40;;;3.00;;
59938;SDS011;45801;51.810;19.444;2022-09-03T16:40:19;7.80;;;2.60;;
59938;SDS011;45801;51.810;19.444;2022-09-03T16:48:48;5.60;;;2.40;;
59938;SDS011;45801;51.810;19.444;2022-09-03T17:00:06;7.50;;;3.40;;
59938;SDS011;45801;51.810;19.444;2022-09-03T17:08:58;7.90;;;3.00;;
59938;SDS011;45801;51.810;19.444;2022-09-03T17:22:42;7.70;;;2.30;;
59938;SDS011;45801;51.810;19.444;2022-09-03T17:25:18;7.30;;;3.00;;
59938;SDS011;45801;51.810;19.444;2022-09-03T17:28:43;7.50;;;2.70;;
59938;SDS011;45801;51.810;19.444;2022-09-03T17:34:07;7.80;;;2.90;;
59938;SDS011;45801;51.810;19.444;2022-09-03T17:36:59;9.20;;;3.40;;
59938;SDS011;45801;51.810;19.444;2022-09-03T17:39:56;8.00;;;3.50;;
59938;SDS011;45801;51.810;19.444;2022-09-03T17:53:51;11.00;;;5.70;;
59938;SDS011;45801;51.810;19.444;2022-09-03T17:59:43;7.20;;;3.30;;
59938;SDS011;45801;51.810;19.444;2022-09-03T18:05:17;8.00;;;3.20;;
59938;SDS011;45801;51.810;19.444;2022-09-03T18:07:52;10.10;;;3.40;;
59938;SDS011;45801;51.810;19.444;2022-09-03T18:10:29;8.70;;;3.10;;
59938;SDS011;45801;51.810;19.444;2022-09-03T18:15:54;7.30;;;3.00;;
59938;SDS011;45801;51.810;19.444;2022-09-03T18:18:32;6.40;;;2.70;;
59938;SDS011;45801;51.810;19.444;2022-09-03T18:21:03;11.10;;;3.20;;
59938;SDS011;45801;51.810;19.444;2022-09-03T18:32:51;8.50;;;3.10;;
59938;SDS011;45801;51.810;19.444;2022-09-03T18:35:36;9.20;;;3.50;;
59938;SDS011;45801;51.810;19.444;2022-09-03T18:38:26;8.20;;;3.00;;
59938;SDS011;45801;51.810;19.444;2022-09-03T18:44:46;9.80;;;4.40;;
59938;SDS011;45801;51.810;19.444;2022-09-03T18:47:36;9.00;;;3.70;;
59938;SDS011;45801;51.810;19.444;2022-09-03T18:50:27;7.60;;;3.50;;
59938;SDS011;45801;51.810;19.444;2022-09-03T18:59:31;9.80;;;3.50;;
59938;SDS011;45801;51.810;19.444;2022-09-03T19:02:46;8.00;;;3.40;;
59938;SDS011;45801;51.810;19.444;2022-09-03T19:06:12;7.80;;;3.20;;
59938;SDS011;45801;51.810;19.444;2022-09-03T19:12:35;8.70;;;3.00;;
59938;SDS011;45801;51.810;19.444;2022-09-03T19:15:33;8.00;;;3.30;;
59938;SDS011;45801;51.810;19.444;2022-09-03T19:18:52;8.30;;;3.60;;
59938;SDS011;45801;51.810;19.444;2022-09-03T19:21:58;8.20;;;4.10;;
59938;SDS011;45801;51.810;19.444;2022-09-03T19:36:59;9.30;;;4.50;;
59938;SDS011;45801;51.810;19.444;2022-09-03T19:39:55;9.80;;;5.70;;
59938;SDS011;45801;51.810;19.444;2022-09-03T19:52:21;9.10;;;4.10;;
59938;SDS011;45801;51.810;19.444;2022-09-03T19:55:19;10.20;;;4.40;;
59938;SDS011;45801;51.810;19.444;2022-09-03T19:58:08;8.60;;;3.50;;
59938;SDS011;45801;51.810;19.444;2022-09-03T20:00:55;8.80;;;3.80;;
59938;SDS011;45801;51.810;19.444;2022-09-03T20:03:42;8.60;;;3.80;;
59938;SDS011;45801;51.810;19.444;2022-09-03T20:06:28;9.40;;;3.60;;
59938;SDS011;45801;51.810;19.444;2022-09-03T20:09:17;6.70;;;2.80;;
59938;SDS011;45801;51.810;19.444;2022-09-03T20:12:07;7.70;;;3.10;;
59938;SDS011;45801;51.810;19.444;2022-09-03T20:14:35;7.90;;;3.30;;
59938;SDS011;45801;51.810;19.444;2022-09-03T20:20:09;9.00;;;3.30;;
59938;SDS011;45801;51.810;19.444;2022-09-03T20:36:33;7.70;;;3.60;;
59938;SDS011;45801;51.810;19.444;2022-09-03T20:39:14;9.30;;;3.60;;
59938;SDS011;45801;51.810;19.444;2022-09-03T20:53:22;8.90;;;3.20;;
59938;SDS011;45801;51.810;19.444;2022-09-03T20:56:02;7.90;;;3.50;;
59938;SDS011;45801;51.810;19.444;2022-09-03T21:07:43;8.30;;;3.10;;
59938;SDS011;45801;51.810;19.444;2022-09-03T21:10:50;7.90;;;3.40;;
59938;SDS011;45801;51.810;19.444;2022-09-03T21:19:22;10.30;;;3.20;;